createdAt,value
2019-03-01T00:01:54.752Z,5.50
2019-03-01T00:04:22.859Z,5.00
2019-03-01T00:06:59.730Z,4.60
2019-03-01T00:09:37.034Z,5.17
2019-03-01T00:12:08.277Z,4.27
2019-03-01T00:14:39.177Z,4.33
2019-03-01T00:17:30.646Z,4.90
2019-03-01T00:20:13.700Z,4.50
2019-03-01T00:22:50.698Z,4.60
2019-03-01T00:25:15.855Z,4.60
2019-03-01T00:27:46.424Z,4.13
2019-03-01T00:30:45.137Z,4.00
2019-03-01T00:33:26.644Z,4.03
2019-03-01T00:36:09.708Z,3.53
2019-03-01T00:38:37.903Z,4.17
2019-03-01T00:41:11.746Z,3.67
2019-03-01T00:44:10.002Z,3.83
2019-03-01T00:46:32.254Z,3.47
2019-03-01T00:48:53.461Z,3.50
2019-03-01T00:51:14.841Z,3.50
2019-03-01T00:53:37.267Z,3.77
2019-03-01T00:55:58.589Z,4.20
2019-03-01T00:58:19.826Z,3.80
2019-03-01T01:00:45.038Z,3.40
2019-03-01T01:03:06.292Z,3.90
2019-03-01T01:05:27.592Z,3.93
2019-03-01T01:07:48.941Z,4.00
2019-03-01T01:10:10.250Z,3.83
2019-03-01T01:12:31.481Z,3.60
2019-03-01T01:14:52.683Z,3.90
2019-03-01T01:17:15.032Z,3.73
2019-03-01T01:19:36.237Z,3.63
2019-03-01T01:21:57.566Z,3.33
2019-03-01T01:24:18.879Z,3.70
2019-03-01T01:26:40.113Z,3.37
2019-03-01T01:29:01.425Z,3.47
2019-03-01T01:31:22.775Z,3.50
2019-03-01T01:33:44.001Z,3.83
2019-03-01T01:36:05.229Z,3.43
2019-03-01T01:38:26.783Z,3.43
2019-03-01T01:40:48.249Z,3.70
2019-03-01T01:43:09.623Z,3.80
2019-03-01T01:45:31.047Z,3.53
2019-03-01T01:47:52.283Z,3.87
2019-03-01T01:50:13.499Z,3.77
2019-03-01T01:52:34.731Z,3.80
2019-03-01T01:54:55.940Z,3.50
2019-03-01T01:57:22.254Z,4.00
2019-03-01T01:59:43.461Z,3.50
2019-03-01T02:02:04.693Z,3.87
2019-03-01T02:04:25.886Z,3.63
2019-03-01T02:06:47.145Z,3.47
2019-03-01T02:09:18.664Z,3.40
2019-03-01T02:11:40.007Z,3.40
2019-03-01T02:14:01.263Z,3.20
2019-03-01T02:16:22.531Z,3.00
2019-03-01T02:18:43.786Z,3.47
2019-03-01T02:21:05.099Z,3.30
2019-03-01T02:23:26.352Z,3.07
2019-03-01T02:25:47.568Z,3.20
2019-03-01T02:28:08.811Z,3.17
2019-03-01T02:30:41.960Z,3.40
2019-03-01T02:33:03.255Z,3.40
2019-03-01T02:35:24.533Z,3.20
2019-03-01T02:37:46.988Z,3.00
2019-03-01T02:40:10.522Z,3.10
2019-03-01T02:42:31.840Z,2.97
2019-03-01T02:44:53.151Z,3.00
2019-03-01T02:47:14.376Z,3.10
2019-03-01T02:49:35.607Z,3.00
2019-03-01T02:51:56.864Z,3.43
2019-03-01T02:54:18.087Z,2.67
2019-03-01T02:56:39.299Z,3.23
2019-03-01T02:59:00.587Z,3.03
2019-03-01T03:01:21.897Z,3.20
2019-03-01T03:03:43.167Z,2.87
2019-03-01T03:06:09.041Z,3.07
2019-03-01T03:08:30.288Z,3.10
2019-03-01T03:10:51.595Z,2.97
2019-03-01T03:13:12.819Z,3.33
2019-03-01T03:15:38.821Z,3.10
2019-03-01T03:18:00.067Z,2.90
2019-03-01T03:20:21.410Z,3.20
2019-03-01T03:22:42.735Z,2.77
2019-03-01T03:25:10.270Z,3.00
2019-03-01T03:27:31.656Z,3.00
2019-03-01T03:29:52.923Z,3.10
2019-03-01T03:32:14.125Z,3.03
2019-03-01T03:34:35.447Z,2.80
2019-03-01T03:36:56.978Z,2.50
2019-03-01T03:39:18.222Z,2.57
2019-03-01T03:41:39.544Z,2.70
2019-03-01T03:44:00.926Z,2.47
2019-03-01T03:46:22.136Z,2.83
2019-03-01T03:48:43.369Z,2.33
2019-03-01T03:51:04.608Z,2.40
2019-03-01T03:53:25.859Z,2.63
2019-03-01T03:55:47.113Z,2.33
2019-03-01T03:58:41.597Z,2.13
2019-03-01T04:01:02.787Z,2.20
2019-03-01T04:03:24.036Z,2.30
2019-03-01T04:05:45.470Z,2.70
2019-03-01T04:08:06.815Z,2.50
2019-03-01T04:10:28.046Z,2.00
2019-03-01T04:12:49.336Z,2.03
2019-03-01T04:15:12.995Z,1.90
2019-03-01T04:17:34.405Z,1.93
2019-03-01T04:19:55.649Z,2.00
2019-03-01T04:22:16.906Z,2.00
2019-03-01T04:24:38.140Z,2.10
2019-03-01T04:26:59.345Z,1.90
2019-03-01T04:29:20.733Z,2.07
2019-03-01T04:31:41.929Z,2.00
2019-03-01T04:34:03.136Z,2.30
2019-03-01T04:36:24.376Z,2.00
2019-03-01T04:38:45.602Z,2.10
2019-03-01T04:41:06.838Z,1.90
2019-03-01T04:43:28.119Z,2.40
2019-03-01T04:45:49.375Z,2.07
2019-03-01T04:48:10.593Z,1.70
2019-03-01T04:50:31.835Z,1.63
2019-03-01T04:52:53.051Z,1.70
2019-03-01T04:55:17.040Z,1.73
2019-03-01T04:57:38.333Z,1.80
2019-03-01T04:59:59.891Z,1.53
2019-03-01T05:02:22.013Z,1.47
2019-03-01T05:04:43.722Z,1.70
2019-03-01T05:07:04.966Z,1.40
2019-03-01T05:09:26.191Z,1.30
2019-03-01T05:11:47.685Z,1.40
2019-03-01T05:14:08.968Z,1.23
2019-03-01T05:16:30.212Z,1.20
2019-03-01T05:18:51.737Z,1.00
2019-03-01T05:21:13.342Z,1.10
2019-03-01T05:23:34.555Z,1.13
2019-03-01T05:25:59.317Z,1.10
2019-03-01T05:28:20.824Z,1.40
2019-03-01T05:30:42.182Z,1.30
2019-03-01T05:33:03.773Z,1.40
2019-03-01T05:35:25.271Z,1.13
2019-03-01T05:37:46.663Z,1.13
2019-03-01T05:40:12.756Z,1.10
2019-03-01T05:42:34.306Z,1.20
2019-03-01T05:44:55.873Z,1.50
2019-03-01T05:47:17.307Z,1.30
2019-03-01T05:49:38.656Z,1.53
2019-03-01T05:52:02.395Z,2.20
2019-03-01T05:54:25.618Z,15.73
2019-03-01T05:56:46.974Z,4.27
2019-03-01T05:59:11.244Z,1.90
2019-03-01T06:01:36.258Z,12.40
2019-03-01T06:04:04.624Z,11.37
2019-03-01T06:06:44.648Z,1.73
2019-03-01T06:09:15.452Z,1.37
2019-03-01T06:11:55.801Z,1.60
2019-03-01T06:14:37.388Z,1.40
2019-03-01T06:17:02.567Z,1.87
2019-03-01T06:19:27.672Z,1.90
2019-03-01T06:22:11.061Z,1.80
2019-03-01T06:25:02.102Z,3.10
2019-03-01T06:27:50.054Z,5.17
2019-03-01T06:30:20.987Z,4.00
2019-03-01T06:33:05.388Z,3.30
2019-03-01T06:35:36.679Z,7.17
2019-03-01T06:38:12.450Z,2.73
2019-03-01T06:40:51.733Z,3.20
2019-03-01T06:43:16.936Z,3.27
2019-03-01T06:46:06.320Z,2.93
2019-03-01T06:48:35.203Z,3.90
2019-03-01T06:50:58.387Z,3.50
2019-03-01T06:53:21.987Z,3.77
2019-03-01T06:55:43.499Z,3.30
2019-03-01T06:58:07.497Z,3.77
2019-03-01T07:00:32.098Z,4.10
2019-03-01T07:02:55.297Z,3.93
2019-03-01T07:05:16.712Z,3.40
2019-03-01T07:07:38.042Z,3.83
2019-03-01T07:09:59.307Z,3.50
2019-03-01T07:12:20.551Z,4.13
2019-03-01T07:14:41.776Z,4.40
2019-03-01T07:17:03.018Z,4.33
2019-03-01T07:19:24.225Z,3.70
2019-03-01T07:21:45.493Z,3.00
2019-03-01T07:24:06.787Z,3.40
2019-03-01T07:26:28.429Z,2.90
2019-03-01T07:28:49.691Z,2.93
2019-03-01T07:31:11.233Z,2.70
2019-03-01T07:33:32.480Z,3.40
2019-03-01T07:35:53.726Z,3.00
2019-03-01T07:38:14.978Z,3.27
2019-03-01T07:40:36.310Z,2.50
2019-03-01T07:42:57.565Z,2.63
2019-03-01T07:45:18.798Z,2.20
2019-03-01T07:47:40.647Z,1.93
2019-03-01T07:50:05.066Z,2.13
2019-03-01T07:52:26.420Z,2.77
2019-03-01T07:54:49.533Z,2.33
2019-03-01T07:57:11.476Z,2.73
2019-03-01T07:59:38.274Z,3.30
2019-03-01T08:01:57.211Z,2.63
2019-03-01T08:04:18.760Z,2.60
2019-03-01T08:06:39.979Z,2.97
2019-03-01T08:09:01.240Z,2.50
2019-03-01T08:11:24.520Z,2.20
2019-03-01T08:13:45.763Z,2.30
2019-03-01T08:16:06.985Z,2.23
2019-03-01T08:18:28.531Z,1.90
2019-03-01T08:20:49.750Z,1.67
2019-03-01T08:23:14.379Z,1.90
2019-03-01T08:25:35.798Z,1.90
2019-03-01T08:27:57.165Z,1.70
2019-03-01T08:30:18.376Z,2.00
2019-03-01T08:32:39.804Z,2.00
2019-03-01T08:35:01.128Z,2.07
2019-03-01T08:37:22.721Z,2.23
2019-03-01T08:39:44.074Z,1.90
2019-03-01T08:42:05.406Z,1.70
2019-03-01T08:44:26.684Z,1.70
2019-03-01T08:46:47.924Z,1.80
2019-03-01T08:49:10.520Z,1.80
2019-03-01T08:51:32.319Z,1.63
2019-03-01T08:53:53.645Z,1.60
2019-03-01T08:56:15.538Z,2.00
2019-03-01T08:58:37.740Z,2.17
2019-03-01T09:01:07.309Z,1.90
2019-03-01T09:03:39.034Z,1.97
2019-03-01T09:06:00.318Z,1.40
2019-03-01T09:08:21.594Z,1.53
2019-03-01T09:10:44.101Z,1.50
2019-03-01T09:13:05.346Z,1.50
2019-03-01T09:15:26.639Z,1.30
2019-03-01T09:17:47.885Z,1.30
2019-03-01T09:20:12.147Z,1.40
2019-03-01T09:22:33.782Z,1.40
2019-03-01T09:24:55.104Z,1.60
2019-03-01T09:27:16.347Z,1.57
2019-03-01T09:29:41.679Z,1.40
2019-03-01T09:32:01.102Z,1.30
2019-03-01T09:34:22.351Z,1.60
2019-03-01T09:36:45.663Z,1.37
2019-03-01T09:39:07.635Z,1.63
2019-03-01T09:41:29.445Z,1.70
2019-03-01T09:43:50.813Z,1.77
2019-03-01T09:46:12.011Z,1.60
2019-03-01T09:48:33.424Z,1.90
2019-03-01T09:50:54.761Z,1.80
2019-03-01T09:53:16.424Z,1.97
2019-03-01T09:55:38.565Z,2.10
2019-03-01T09:58:00.298Z,1.90
2019-03-01T10:00:27.851Z,2.23
2019-03-01T10:02:49.249Z,2.10
2019-03-01T10:05:12.259Z,2.40
2019-03-01T10:07:33.568Z,2.40
2019-03-01T10:09:54.866Z,2.30
2019-03-01T10:12:16.055Z,2.30
2019-03-01T10:14:37.269Z,2.67
2019-03-01T10:16:58.476Z,2.60
2019-03-01T10:19:19.666Z,2.70
2019-03-01T10:21:40.869Z,2.67
2019-03-01T10:24:02.713Z,2.23
2019-03-01T10:26:23.949Z,2.60
2019-03-01T10:28:45.168Z,2.57
2019-03-01T10:31:06.566Z,2.87
2019-03-01T10:33:27.777Z,2.37
2019-03-01T10:35:48.993Z,2.53
2019-03-01T10:38:10.295Z,2.60
2019-03-01T10:40:31.494Z,2.63
2019-03-01T10:42:52.705Z,2.57
2019-03-01T10:45:20.893Z,8.57
2019-03-01T10:47:42.085Z,5.20
2019-03-01T10:50:06.830Z,5.33
2019-03-01T10:52:28.253Z,2.80
2019-03-01T10:54:49.912Z,3.17
2019-03-01T10:57:11.583Z,2.50
2019-03-01T10:59:32.851Z,2.63
2019-03-01T11:01:54.062Z,3.00
2019-03-01T11:04:15.310Z,2.80
2019-03-01T11:06:36.539Z,4.83
2019-03-01T11:08:57.733Z,4.33
2019-03-01T11:11:19.019Z,2.90
2019-03-01T11:13:40.311Z,3.07
2019-03-01T11:16:01.542Z,2.50
2019-03-01T11:18:22.731Z,2.77
2019-03-01T11:20:44.076Z,3.23
2019-03-01T11:23:05.601Z,2.60
2019-03-01T11:25:26.837Z,3.00
2019-03-01T11:27:48.054Z,2.70
2019-03-01T11:30:31.227Z,2.90
2019-03-01T11:32:52.598Z,2.80
2019-03-01T11:35:14.705Z,2.90
2019-03-01T11:37:35.971Z,3.07
2019-03-01T11:39:57.215Z,2.83
2019-03-01T11:42:18.526Z,2.50
2019-03-01T11:44:41.010Z,2.90
2019-03-01T11:47:03.908Z,2.70
2019-03-01T11:49:25.504Z,2.90
2019-03-01T11:51:46.881Z,2.90
2019-03-01T11:54:08.121Z,2.53
2019-03-01T11:56:29.471Z,2.87
2019-03-01T11:58:50.759Z,2.63
2019-03-01T12:01:17.091Z,2.87
2019-03-01T12:03:35.247Z,2.67
2019-03-01T12:05:56.451Z,3.40
2019-03-01T12:08:17.765Z,2.97
2019-03-01T12:10:39.202Z,2.90
2019-03-01T12:13:00.506Z,3.30
2019-03-01T12:15:21.893Z,3.03
2019-03-01T12:17:43.195Z,3.13
2019-03-01T12:20:08.024Z,3.30
2019-03-01T12:22:29.390Z,2.90
2019-03-01T12:24:50.657Z,3.00
2019-03-01T12:27:11.901Z,3.30
2019-03-01T12:29:33.118Z,2.93
2019-03-01T12:31:54.601Z,2.70
2019-03-01T12:34:16.053Z,3.00
2019-03-01T12:36:37.358Z,3.20
2019-03-01T12:38:58.550Z,2.80
2019-03-01T12:41:19.762Z,3.87
2019-03-01T12:43:41.282Z,3.30
2019-03-01T12:46:02.733Z,3.27
2019-03-01T12:48:25.302Z,3.70
2019-03-01T12:50:47.546Z,3.30
2019-03-01T12:53:08.770Z,2.97
2019-03-01T12:55:30.082Z,3.50
2019-03-01T12:57:51.621Z,3.20
2019-03-01T13:00:34.700Z,3.20
2019-03-01T13:02:55.938Z,3.20
2019-03-01T13:05:17.211Z,3.10
2019-03-01T13:07:38.623Z,3.60
2019-03-01T13:10:03.067Z,3.83
2019-03-01T13:12:26.230Z,3.40
2019-03-01T13:14:46.581Z,3.70
2019-03-01T13:17:08.272Z,3.87
2019-03-01T13:19:31.475Z,3.33
2019-03-01T13:21:52.789Z,3.67
2019-03-01T13:24:16.354Z,3.97
2019-03-01T13:26:37.630Z,3.80
2019-03-01T13:29:00.229Z,3.60
2019-03-01T13:31:21.438Z,4.03
2019-03-01T13:33:43.851Z,4.50
2019-03-01T13:36:06.051Z,5.00
2019-03-01T13:38:30.289Z,5.20
2019-03-01T13:40:50.380Z,4.80
2019-03-01T13:43:11.599Z,4.90
2019-03-01T13:45:32.813Z,4.90
2019-03-01T13:47:54.396Z,5.07
2019-03-01T13:50:18.592Z,6.37
2019-03-01T13:52:40.124Z,5.77
2019-03-01T13:55:01.322Z,6.90
2019-03-01T13:57:22.527Z,5.63
2019-03-01T13:59:44.070Z,6.30
2019-03-01T14:02:07.474Z,6.57
2019-03-01T14:04:28.698Z,6.00
2019-03-01T14:06:49.910Z,6.60
2019-03-01T14:09:12.508Z,7.03
2019-03-01T14:11:33.820Z,6.33
2019-03-01T14:13:56.111Z,6.90
2019-03-01T14:16:20.467Z,5.83
2019-03-01T14:18:41.956Z,5.60
2019-03-01T14:21:03.992Z,5.87
2019-03-01T14:23:25.967Z,5.73
2019-03-01T14:25:47.311Z,5.63
2019-03-01T14:28:08.548Z,4.87
2019-03-01T14:30:33.214Z,5.10
2019-03-01T14:32:56.896Z,4.97
2019-03-01T14:35:16.105Z,6.20
2019-03-01T14:37:37.411Z,6.50
2019-03-01T14:39:59.092Z,7.97
2019-03-01T14:42:20.567Z,9.97
2019-03-01T14:44:41.800Z,9.13
2019-03-01T14:47:03.304Z,9.20
2019-03-01T14:49:24.561Z,7.67
2019-03-01T14:51:46.810Z,8.73
2019-03-01T14:54:09.861Z,8.40
2019-03-01T14:56:35.870Z,9.10
2019-03-01T14:59:06.963Z,9.40
2019-03-01T15:01:37.541Z,10.20
2019-03-01T15:03:58.791Z,9.70
2019-03-01T15:06:20.183Z,10.03
2019-03-01T15:08:44.200Z,9.90
2019-03-01T15:11:09.271Z,10.60
2019-03-01T15:13:31.391Z,9.70
2019-03-01T15:15:53.977Z,9.93
2019-03-01T15:18:15.371Z,10.17
2019-03-01T15:20:36.602Z,9.63
2019-03-01T15:22:57.802Z,10.10
2019-03-01T15:25:19.125Z,10.43
2019-03-01T15:27:40.947Z,10.07
2019-03-01T15:30:12.019Z,10.30
2019-03-01T15:32:35.269Z,9.67
2019-03-01T15:35:02.846Z,9.40
2019-03-01T15:37:20.514Z,11.13
2019-03-01T15:39:41.741Z,10.47
2019-03-01T15:42:02.951Z,9.47
2019-03-01T15:44:24.227Z,13.10
2019-03-01T15:46:46.428Z,18.23
2019-03-01T15:49:11.740Z,21.60
2019-03-01T15:51:34.741Z,20.63
2019-03-01T15:53:57.519Z,10.63
2019-03-01T15:56:18.396Z,14.73
2019-03-01T15:58:39.616Z,13.60
2019-03-01T16:01:00.865Z,15.07
2019-03-01T16:03:22.139Z,12.33
2019-03-01T16:05:43.476Z,13.97
2019-03-01T16:08:05.551Z,14.67
2019-03-01T16:10:27.830Z,13.03
2019-03-01T16:12:49.029Z,13.73
2019-03-01T16:15:11.961Z,12.00
2019-03-01T16:17:33.265Z,12.13
2019-03-01T16:19:54.528Z,13.23
2019-03-01T16:22:18.856Z,11.63
2019-03-01T16:24:41.588Z,12.73
2019-03-01T16:27:01.993Z,11.63
2019-03-01T16:29:23.305Z,10.57
2019-03-01T16:31:44.580Z,12.23
2019-03-01T16:34:08.730Z,11.70
2019-03-01T16:36:31.339Z,12.13
2019-03-01T16:38:52.549Z,11.87
2019-03-01T16:41:13.754Z,11.27
2019-03-01T16:43:34.937Z,12.17
2019-03-01T16:45:56.615Z,11.40
2019-03-01T16:48:18.853Z,11.23
2019-03-01T16:50:40.655Z,12.13
2019-03-01T16:53:04.759Z,11.57
2019-03-01T16:55:28.781Z,13.13
2019-03-01T16:57:52.355Z,13.03
2019-03-01T17:00:20.415Z,13.67
2019-03-01T17:02:41.987Z,13.47
2019-03-01T17:05:06.581Z,14.20
2019-03-01T17:07:28.685Z,13.77
2019-03-01T17:09:51.404Z,14.47
2019-03-01T17:12:13.944Z,15.40
2019-03-01T17:14:38.777Z,15.97
2019-03-01T17:17:00.746Z,17.00
2019-03-01T17:19:24.088Z,16.63
2019-03-01T17:21:50.750Z,16.67
2019-03-01T17:24:12.148Z,16.77
2019-03-01T17:26:32.263Z,17.30
2019-03-01T17:28:53.659Z,18.80
2019-03-01T17:31:15.108Z,19.27
2019-03-01T17:33:36.323Z,19.77
2019-03-01T17:35:57.547Z,20.00
2019-03-01T17:38:18.760Z,20.50
2019-03-01T17:40:39.971Z,21.43
2019-03-01T17:43:01.265Z,22.30
2019-03-01T17:45:25.524Z,23.47
2019-03-01T17:47:46.915Z,23.73
2019-03-01T17:50:08.720Z,23.17
2019-03-01T17:52:33.725Z,24.20
2019-03-01T17:54:57.597Z,25.57
2019-03-01T17:57:20.076Z,25.00
2019-03-01T17:59:44.599Z,26.43
2019-03-01T18:02:05.108Z,25.40
2019-03-01T18:04:26.893Z,26.07
2019-03-01T18:06:48.721Z,25.93
2019-03-01T18:09:13.376Z,25.53
2019-03-01T18:11:34.834Z,27.43
2019-03-01T18:13:56.836Z,24.37
2019-03-01T18:16:22.067Z,24.90
2019-03-01T18:18:42.602Z,27.00
2019-03-01T18:21:04.306Z,25.10
2019-03-01T18:23:25.607Z,26.17
2019-03-01T18:25:46.900Z,26.30
2019-03-01T18:28:08.214Z,24.87
2019-03-01T18:30:31.325Z,26.57
2019-03-01T18:32:53.161Z,26.33
2019-03-01T18:35:14.373Z,26.17
2019-03-01T18:37:35.591Z,26.77
2019-03-01T18:39:56.794Z,27.97
2019-03-01T18:42:18.023Z,25.73
2019-03-01T18:44:39.223Z,26.83
2019-03-01T18:47:00.490Z,27.37
2019-03-01T18:49:21.697Z,28.03
2019-03-01T18:51:43.533Z,29.20
2019-03-01T18:54:05.086Z,29.23
2019-03-01T18:56:28.730Z,28.73
2019-03-01T18:58:49.816Z,28.40
2019-03-01T19:01:11.679Z,26.53
2019-03-01T19:03:36.605Z,27.83
2019-03-01T19:05:57.605Z,26.90
2019-03-01T19:08:18.842Z,28.97
2019-03-01T19:10:40.071Z,26.93
2019-03-01T19:13:01.284Z,25.83
2019-03-01T19:15:22.511Z,27.43
2019-03-01T19:18:05.577Z,27.53
2019-03-01T19:20:33.526Z,32.80
2019-03-01T19:22:55.152Z,28.57
2019-03-01T19:25:16.446Z,26.83
2019-03-01T19:27:37.762Z,23.67
2019-03-01T19:29:58.980Z,24.70
2019-03-01T19:32:20.199Z,24.60
2019-03-01T19:34:41.415Z,23.57
2019-03-01T19:37:02.634Z,24.20
2019-03-01T19:39:23.866Z,23.87
2019-03-01T19:41:45.076Z,25.53
2019-03-01T19:44:06.412Z,24.53
2019-03-01T19:46:27.652Z,24.47
2019-03-01T19:48:48.952Z,25.93
2019-03-01T19:51:10.146Z,24.43
2019-03-01T19:53:32.024Z,22.33
2019-03-01T19:55:53.222Z,21.73
2019-03-01T19:58:14.516Z,21.10
2019-03-01T20:00:39.147Z,21.77
2019-03-01T20:02:59.250Z,20.53
2019-03-01T20:05:27.821Z,19.60
2019-03-01T20:07:51.837Z,21.37
2019-03-01T20:10:15.997Z,21.80
2019-03-01T20:12:40.533Z,25.73
2019-03-01T20:15:00.538Z,26.13
2019-03-01T20:17:21.788Z,34.00
2019-03-01T20:19:43.113Z,44.53
2019-03-01T20:22:04.299Z,27.73
2019-03-01T20:24:25.529Z,24.73
2019-03-01T20:26:46.754Z,25.40
2019-03-01T20:29:08.093Z,27.00
2019-03-01T20:31:29.366Z,25.93
2019-03-01T20:33:50.618Z,25.00
2019-03-01T20:36:13.851Z,24.63
2019-03-01T20:38:37.108Z,25.73
2019-03-01T20:40:59.865Z,24.80
2019-03-01T20:43:21.402Z,26.33
2019-03-01T20:45:42.601Z,25.37
2019-03-01T20:48:03.924Z,27.67
2019-03-01T20:50:25.662Z,27.13
2019-03-01T20:52:47.006Z,27.50
2019-03-01T20:55:09.764Z,29.40
2019-03-01T20:57:31.032Z,30.00
2019-03-01T20:59:52.604Z,29.43
2019-03-01T21:02:15.896Z,30.17
2019-03-01T21:04:41.554Z,30.10
2019-03-01T21:07:00.047Z,30.03
2019-03-01T21:09:21.261Z,29.43
2019-03-01T21:11:42.459Z,29.87
2019-03-01T21:14:03.710Z,30.37
2019-03-01T21:16:24.927Z,33.67
2019-03-01T21:19:09.651Z,31.33
2019-03-01T21:21:32.174Z,29.30
2019-03-01T21:24:01.891Z,30.10
2019-03-01T21:26:24.082Z,29.30
2019-03-01T21:28:51.425Z,29.90
2019-03-01T21:31:14.465Z,29.83
2019-03-01T21:33:36.491Z,28.70
2019-03-01T21:35:58.089Z,31.10
2019-03-01T21:38:19.553Z,28.43
2019-03-01T21:40:40.962Z,30.37
2019-03-01T21:43:02.389Z,28.77
2019-03-01T21:45:24.101Z,28.47
2019-03-01T21:47:48.105Z,29.87
2019-03-01T21:50:24.119Z,30.67
2019-03-01T21:52:45.511Z,31.03
2019-03-01T21:55:10.081Z,29.77
2019-03-01T21:57:32.553Z,30.87
2019-03-01T21:59:56.680Z,32.50
2019-03-01T22:02:20.828Z,32.03
2019-03-01T22:04:47.635Z,31.60
2019-03-01T22:07:09.352Z,30.67
2019-03-01T22:09:37.706Z,29.27
2019-03-01T22:11:59.107Z,30.33
2019-03-01T22:14:20.910Z,31.73
2019-03-01T22:16:42.330Z,29.50
2019-03-01T22:19:03.982Z,29.37
2019-03-01T22:21:25.281Z,27.73
2019-03-01T22:23:47.617Z,27.77
2019-03-01T22:26:13.609Z,28.10
2019-03-01T22:28:54.544Z,27.77
2019-03-01T22:31:17.453Z,28.27
2019-03-01T22:33:38.997Z,27.43
2019-03-01T22:36:28.515Z,28.30
2019-03-01T22:39:06.974Z,27.97
2019-03-01T22:41:39.320Z,28.30
2019-03-01T22:44:03.349Z,29.23
2019-03-01T22:46:25.951Z,28.30
2019-03-01T22:49:04.858Z,28.87
2019-03-01T22:51:26.191Z,34.90
2019-03-01T22:53:48.641Z,29.07
2019-03-01T22:56:12.096Z,37.13
2019-03-01T22:58:36.469Z,28.70
2019-03-01T23:01:00.633Z,28.93
2019-03-01T23:03:22.396Z,28.50
2019-03-01T23:05:44.199Z,28.87
2019-03-01T23:08:05.648Z,27.03
2019-03-01T23:10:27.611Z,30.03
2019-03-01T23:12:49.145Z,29.30
2019-03-01T23:15:23.608Z,29.33
2019-03-01T23:17:44.848Z,31.20
2019-03-01T23:20:09.483Z,29.23
2019-03-01T23:22:30.922Z,29.17
2019-03-01T23:24:52.117Z,29.37
2019-03-01T23:27:13.342Z,28.33
2019-03-01T23:29:34.565Z,29.87
2019-03-01T23:31:55.777Z,28.73
2019-03-01T23:34:17.812Z,29.73
2019-03-01T23:36:39.240Z,29.70
2019-03-01T23:39:00.767Z,30.87
2019-03-01T23:41:22.175Z,29.30
2019-03-01T23:43:43.394Z,28.60
2019-03-01T23:46:04.723Z,29.57
2019-03-01T23:48:25.954Z,30.93
2019-03-01T23:50:47.277Z,27.80
2019-03-01T23:53:08.486Z,28.73
2019-03-01T23:55:29.818Z,27.97
2019-03-01T23:57:51.290Z,25.27
